Time;durP1;ratioP1;P1;durP2;ratioP2;P2;SDS_P1;SDS_P2;PMS_P1;PMS_P2;Temp;Humidity;BMP_temperature;BMP_pressure;BME280_temperature;BME280_humidity;BME280_pressure;Samples;Min_cycle;Max_cycle;Signal;HPM_P1;HPM_P2
2021/07/31 00:01:18;;;;;;;2.90;2.17;;;18.70;99.90;;;16.86;100.00;100993.66;3527250;39;100472;-83
2021/07/31 00:03:45;;;;;;;3.58;2.65;;;18.60;99.90;;;16.85;100.00;100997.38;3527777;39;99949;-83
2021/07/31 00:06:12;;;;;;;2.88;1.92;;;18.60;99.90;;;16.92;100.00;101010.19;3519534;39;102753;-82
2021/07/31 00:08:41;;;;;;;4.30;2.47;;;18.50;99.90;;;16.98;100.00;101004.03;3516396;39;101868;-81
2021/07/31 00:11:09;;;;;;;4.00;3.00;;;18.50;99.90;;;16.89;100.00;100995.16;3528426;39;99979;-82
2021/07/31 00:13:36;;;;;;;2.35;2.15;;;18.50;99.90;;;16.85;100.00;100999.25;3528935;39;100020;-82
2021/07/31 00:16:03;;;;;;;3.05;2.70;;;18.40;99.90;;;16.81;100.00;100997.94;3530410;39;100164;-82
2021/07/31 00:18:30;;;;;;;2.58;2.20;;;18.40;99.90;;;16.76;100.00;101006.59;3537380;39;102207;-83
2021/07/31 00:20:58;;;;;;;4.68;2.80;;;18.40;99.90;;;16.72;100.00;101012.53;3527413;39;100545;-82
2021/07/31 00:23:26;;;;;;;4.53;2.25;;;18.40;99.90;;;16.74;100.00;101019.44;3517403;39;100168;-83
2021/07/31 00:25:55;;;;;;;4.20;2.50;;;18.40;99.90;;;16.78;100.00;101034.28;3526157;39;102406;-81
2021/07/31 00:28:22;;;;;;;5.30;2.50;;;18.30;99.90;;;16.68;100.00;101044.47;3525899;39;101168;-84
2021/07/31 00:30:51;;;;;;;3.75;2.28;;;18.30;99.90;;;16.56;100.00;101063.97;3525279;39;102566;-82
2021/07/31 00:33:18;;;;;;;4.47;2.60;;;18.90;99.90;;;16.51;100.00;101094.19;3526866;39;100166;-83
2021/07/31 00:35:45;;;;;;;8.07;2.72;;;18.20;99.90;;;16.43;100.00;101116.69;3516362;39;102620;-83
2021/07/31 00:38:12;;;;;;;4.57;2.83;;;18.20;99.90;;;16.41;100.00;101151.16;3526655;39;100853;-82
2021/07/31 00:40:41;;;;;;;4.50;3.13;;;18.20;99.90;;;16.47;100.00;101172.03;3526995;39;101715;-82
2021/07/31 00:43:10;;;;;;;3.53;2.90;;;18.20;99.90;;;16.41;100.00;101197.06;3527339;39;100154;-83
2021/07/31 00:45:37;;;;;;;3.60;3.08;;;18.10;99.90;;;16.51;100.00;101210.34;3528535;39;100389;-82
2021/07/31 00:48:05;;;;;;;4.65;2.45;;;18.70;99.90;;;16.62;100.00;101172.19;3527765;39;100887;-83
2021/07/31 00:50:35;;;;;;;2.92;2.40;;;18.10;99.90;;;16.66;100.00;101151.06;3531689;39;100707;-83
2021/07/31 00:53:02;;;;;;;2.65;2.20;;;18.10;99.90;;;16.77;100.00;101121.78;3523098;39;100117;-82
2021/07/31 00:55:31;;;;;;;3.25;2.60;;;18.10;99.90;;;16.86;100.00;100987.41;3527252;39;103390;-81
2021/07/31 00:58:00;;;;;;;3.17;2.03;;;18.10;99.90;;;16.87;100.00;100946.69;3538629;39;102769;-83
2021/07/31 01:00:36;;;;;;;3.00;2.63;;;18.20;99.90;;;16.90;100.00;100920.31;3528246;39;102575;-82
2021/07/31 01:03:03;;;;;;;3.40;2.28;;;18.20;99.90;;;16.97;100.00;100897.75;3536491;39;99994;-84
2021/07/31 01:05:30;;;;;;;5.57;2.67;;;18.20;99.90;;;17.01;100.00;100882.00;3529680;39;101136;-83
2021/07/31 01:07:57;;;;;;;3.45;2.80;;;18.20;99.90;;;17.06;100.00;100863.38;3528179;39;101002;-82
2021/07/31 01:10:24;;;;;;;2.83;2.25;;;18.20;99.90;;;17.16;100.00;100836.91;3529465;39;100527;-80
2021/07/31 01:12:55;;;;;;;6.05;1.90;;;18.20;99.90;;;17.23;100.00;100808.91;3518303;39;100248;-83
2021/07/31 01:15:22;;;;;;;7.13;2.40;;;18.30;99.90;;;17.29;100.00;100788.38;3529333;39;100782;-80
2021/07/31 01:17:51;;;;;;;2.38;2.17;;;18.30;99.90;;;17.28;100.00;100758.81;3518707;39;102988;-81
2021/07/31 01:20:18;;;;;;;3.92;2.42;;;18.20;99.90;;;17.37;100.00;100749.56;3518012;39;102363;-84
2021/07/31 01:22:54;;;;;;;2.17;1.98;;;18.30;99.90;;;17.50;100.00;100728.06;3529540;39;100314;-81
2021/07/31 01:25:21;;;;;;;2.95;2.10;;;18.30;99.90;;;17.67;100.00;100698.91;3527004;39;103271;-81
2021/07/31 01:27:49;;;;;;;4.80;2.70;;;18.30;99.90;;;17.72;100.00;100672.09;3528920;39;103085;-81
2021/07/31 01:30:17;;;;;;;2.95;2.45;;;18.40;99.90;;;17.75;100.00;100629.25;3550596;39;101014;-82
2021/07/31 01:32:45;;;;;;;5.82;2.55;;;18.50;99.90;;;17.78;100.00;100607.22;3532771;39;99995;-84
2021/07/31 01:35:13;;;;;;;2.90;2.15;;;18.50;99.90;;;17.86;100.00;100604.34;3540015;39;100978;-84
2021/07/31 01:37:41;;;;;;;3.92;2.03;;;18.60;99.90;;;17.89;100.00;100587.72;3540937;39;100685;-82
2021/07/31 01:40:13;;;;;;;4.03;2.83;;;18.70;99.90;;;17.89;100.00;100570.63;3538302;39;100508;-81
2021/07/31 01:42:42;;;;;;;5.20;2.72;;;18.80;99.90;;;17.92;100.00;100551.28;3537384;39;100080;-82
2021/07/31 01:45:11;;;;;;;3.75;2.53;;;18.80;99.90;;;17.88;100.00;100534.59;3539656;39;100923;-82
2021/07/31 01:47:43;;;;;;;3.03;2.47;;;19.70;99.90;;;17.87;100.00;100527.50;3530565;39;103049;-84
2021/07/31 01:50:11;;;;;;;4.60;1.98;;;18.40;99.90;;;17.82;100.00;100529.13;3530050;39;103034;-83
2021/07/31 01:52:44;;;;;;;3.95;2.35;;;18.90;99.90;;;17.77;100.00;100528.91;3528494;39;99904;-81
2021/07/31 01:55:14;;;;;;;4.05;2.00;;;18.80;99.90;;;17.75;100.00;100533.69;3518770;39;101296;-81
2021/07/31 01:57:44;;;;;;;2.92;2.35;;;18.80;99.90;;;17.70;100.00;100541.53;3530174;39;101011;-81
2021/07/31 02:00:33;;;;;;;3.45;2.38;;;18.80;99.90;;;17.66;100.00;100529.47;3535815;39;101064;-83
2021/07/31 02:03:05;;;;;;;3.72;1.85;;;18.90;99.90;;;17.70;100.00;100522.59;3539839;39;100092;-82
2021/07/31 02:05:43;;;;;;;2.65;2.28;;;18.80;99.90;;;17.66;100.00;100510.53;3541638;39;101477;-81
2021/07/31 02:08:11;;;;;;;2.88;2.25;;;19.60;99.90;;;17.64;100.00;100513.44;3537211;39;102764;-81
2021/07/31 02:10:51;;;;;;;2.30;2.10;;;18.70;99.90;;;17.67;100.00;100515.75;3538709;39;102353;-82
2021/07/31 02:13:19;;;;;;;2.85;2.10;;;18.70;99.90;;;17.56;100.00;100527.06;3535791;39;100103;-84
2021/07/31 02:15:47;;;;;;;3.78;2.53;;;18.70;99.90;;;17.59;100.00;100532.91;3529524;39;100710;-82
2021/07/31 02:18:19;;;;;;;3.58;2.60;;;18.70;99.90;;;17.55;100.00;100531.66;3532331;39;101133;-82
2021/07/31 02:20:47;;;;;;;4.47;2.60;;;18.60;99.90;;;17.55;100.00;100533.53;3518533;39;102654;-82
2021/07/31 02:23:50;;;;;;;4.60;2.33;;;18.60;99.90;;;17.47;100.00;100539.91;3485263;40;100316;-83
2021/07/31 02:26:37;;;;;;;4.78;2.95;;;18.80;99.90;;;17.49;100.00;100558.66;3524605;39;100503;-81
2021/07/31 02:29:09;;;;;;;3.17;1.95;;;18.60;99.90;;;17.47;100.00;100560.72;3527071;39;101349;-82
2021/07/31 02:31:39;;;;;;;4.10;2.42;;;18.60;99.90;;;17.41;100.00;100567.75;3517268;39;102857;-83
2021/07/31 02:34:07;;;;;;;3.80;2.50;;;19.50;99.90;;;17.35;100.00;100573.94;3516478;39;100381;-83
2021/07/31 02:36:37;;;;;;;3.85;2.22;;;18.50;99.90;;;17.31;100.00;100588.88;3518035;39;102600;-81
2021/07/31 02:39:24;;;;;;;2.65;1.98;;;18.50;99.90;;;17.31;100.00;100601.59;3527602;39;103307;-81
2021/07/31 02:41:53;;;;;;;2.85;2.05;;;18.40;99.90;;;17.17;100.00;100614.13;3527312;39;100222;-83
2021/07/31 02:44:23;;;;;;;4.70;3.25;;;18.40;99.90;;;17.12;100.00;100625.53;3527619;39;100134;-82
2021/07/31 02:46:52;;;;;;;4.30;1.80;;;18.40;99.90;;;17.13;100.00;100648.00;3527456;39;103717;-81
2021/07/31 02:49:20;;;;;;;2.63;2.15;;;18.40;99.90;;;17.12;100.00;100660.66;3527267;39;103791;-84
2021/07/31 02:51:48;;;;;;;3.58;2.50;;;18.30;99.90;;;17.16;100.00;100664.69;3536816;39;102272;-83
2021/07/31 02:54:35;;;;;;;3.08;2.70;;;19.00;99.90;;;17.18;100.00;100662.59;3528363;39;102740;-81
2021/07/31 02:57:08;;;;;;;2.78;2.05;;;18.30;99.90;;;17.21;100.00;100667.63;3526992;39;102788;-82
2021/07/31 02:59:36;;;;;;;3.67;3.08;;;18.30;99.90;;;17.29;100.00;100669.38;3536191;39;102961;-83
2021/07/31 03:02:05;;;;;;;6.10;3.33;;;18.40;99.90;;;17.50;100.00;100660.44;3527919;39;100858;-80
2021/07/31 03:04:35;;;;;;;2.28;1.90;;;18.40;99.90;;;17.54;100.00;100638.22;3535091;39;99990;-82
2021/07/31 03:07:16;;;;;;;6.10;3.40;;;18.50;99.90;;;17.62;100.00;100615.56;3529900;39;100346;-81
2021/07/31 03:09:43;;;;;;;2.65;2.30;;;18.60;99.90;;;17.68;100.00;100595.06;3533408;39;103124;-81
2021/07/31 03:12:12;;;;;;;2.03;1.83;;;18.60;99.90;;;17.71;100.00;100586.53;3520335;39;101409;-81
2021/07/31 03:14:39;;;;;;;2.92;2.03;;;18.80;99.90;;;17.77;100.00;100575.75;3527431;39;100094;-83
2021/07/31 03:17:06;;;;;;;3.33;2.65;;;18.80;99.90;;;17.82;100.00;100569.72;3545121;39;101562;-84
2021/07/31 03:19:33;;;;;;;2.70;2.22;;;19.90;99.90;;;17.88;100.00;100544.59;3537382;39;103662;-82
2021/07/31 03:22:04;;;;;;;3.72;2.83;;;19.40;99.90;;;17.92;100.00;100537.75;3536276;39;100709;-83
2021/07/31 03:24:44;;;;;;;3.72;2.78;;;18.90;99.90;;;18.02;100.00;100529.25;3527527;39;100123;-83
2021/07/31 03:27:13;;;;;;;2.55;2.28;;;19.00;99.90;;;18.09;100.00;100516.56;3541063;39;103177;-83
2021/07/31 03:29:58;;;;;;;3.22;2.55;;;19.00;99.90;;;18.18;100.00;100490.97;3540405;39;99979;-81
2021/07/31 03:32:27;;;;;;;5.50;2.15;;;19.10;99.90;;;18.28;100.00;100475.22;3540087;39;102436;-81
2021/07/31 03:34:55;;;;;;;4.05;2.75;;;19.20;99.90;;;18.34;100.00;100455.41;3531758;39;100193;-80
2021/07/31 03:37:22;;;;;;;2.92;2.08;;;19.20;99.90;;;18.38;100.00;100426.88;3539414;39;103066;-81
2021/07/31 03:39:49;;;;;;;11.32;2.20;;;19.30;99.90;;;18.41;100.00;100398.56;3545516;39;101557;-84
2021/07/31 03:42:18;;;;;;;4.32;2.53;;;19.40;99.90;;;18.46;100.00;100377.06;3531886;39;102256;-84
2021/07/31 03:44:49;;;;;;;3.50;2.40;;;19.40;99.90;;;18.54;100.00;100350.63;3522831;39;100157;-80
2021/07/31 03:47:18;;;;;;;3.30;2.25;;;19.50;99.90;;;18.54;100.00;100322.69;3522853;39;102722;-81
2021/07/31 03:49:45;;;;;;;3.53;2.40;;;19.50;99.90;;;18.54;100.00;100315.41;3521007;39;103698;-80
2021/07/31 03:52:13;;;;;;;2.28;2.08;;;19.50;99.90;;;18.52;100.00;100305.81;3539055;39;101153;-81
2021/07/31 03:54:41;;;;;;;4.30;2.38;;;19.60;99.90;;;18.46;100.00;100317.47;3527165;39;100133;-83
2021/07/31 03:57:09;;;;;;;2.63;2.28;;;19.60;99.90;;;18.45;100.00;100327.47;3523115;39;102908;-82
2021/07/31 03:59:45;;;;;;;3.58;2.53;;;19.60;99.90;;;18.40;100.00;100348.97;3519010;39;101490;-81
2021/07/31 04:02:13;;;;;;;8.00;2.35;;;19.70;99.90;;;18.44;100.00;100366.44;3524167;39;102158;-83
2021/07/31 04:04:40;;;;;;;4.18;2.22;;;19.50;99.90;;;18.45;100.00;100332.91;3530616;39;100048;-83
2021/07/31 04:07:08;;;;;;;2.10;1.90;;;19.50;99.90;;;18.55;100.00;100319.75;3527834;39;102649;-82
2021/07/31 04:09:54;;;;;;;4.70;2.28;;;19.50;99.90;;;18.54;100.00;100293.72;3532223;39;101016;-81
2021/07/31 04:12:44;;;;;;;2.70;1.90;;;20.50;99.90;;;18.53;100.00;100256.84;3533578;39;100774;-81
2021/07/31 04:15:48;;;;;;;4.50;2.28;;;19.60;99.90;;;18.54;100.00;100238.69;3530097;39;100148;-81
2021/07/31 04:18:16;;;;;;;3.40;2.10;;;19.70;99.90;;;18.58;100.00;100221.81;3536703;39;103660;-84
2021/07/31 04:20:43;;;;;;;1.67;1.58;;;19.70;99.90;;;18.61;100.00;100212.44;3519693;39;102764;-82
2021/07/31 04:23:10;;;;;;;2.85;2.08;;;19.70;99.90;;;18.61;100.00;100218.69;3521216;39;102462;-83
2021/07/31 04:25:48;;;;;;;1.80;1.52;;;19.70;99.90;;;18.46;100.00;100245.16;3529221;39;100307;-80
2021/07/31 04:28:15;;;;;;;2.20;1.60;;;19.80;99.90;;;18.30;100.00;100280.78;3527503;39;101203;-83
2021/07/31 04:30:42;;;;;;;2.30;1.83;;;19.80;99.90;;;18.25;100.00;100322.06;3529046;39;101434;-82
2021/07/31 04:33:11;;;;;;;1.67;1.58;;;20.70;99.90;;;18.16;100.00;100352.25;3518930;39;102252;-83
2021/07/31 04:35:38;;;;;;;4.35;2.13;;;19.90;99.90;;;18.10;100.00;100385.56;3532062;39;99971;-83
2021/07/31 04:38:05;;;;;;;2.25;1.38;;;20.30;99.90;;;17.99;100.00;100399.69;3520234;39;103014;-84
2021/07/31 04:40:33;;;;;;;2.05;1.48;;;19.80;99.90;;;17.95;100.00;100427.16;3544406;39;101447;-81
2021/07/31 04:43:01;;;;;;;2.50;1.90;;;19.70;99.90;;;17.86;100.00;100441.09;3543125;39;100702;-86
2021/07/31 04:45:28;;;;;;;4.82;2.42;;;19.70;99.90;;;17.90;100.00;100448.63;3539825;39;100450;-84
2021/07/31 04:47:55;;;;;;;2.95;1.95;;;19.60;99.90;;;18.04;100.00;100438.69;3530813;39;101346;-82
2021/07/31 04:50:23;;;;;;;2.42;1.95;;;19.60;99.90;;;18.27;100.00;100403.94;3533107;39;100885;-84
2021/07/31 04:52:50;;;;;;;2.00;1.80;;;19.60;99.90;;;18.44;100.00;100369.16;3534037;39;100624;-82
2021/07/31 04:55:17;;;;;;;3.10;1.60;;;19.50;99.90;;;18.83;100.00;100326.84;3533633;39;99938;-83
2021/07/31 04:57:44;;;;;;;2.70;1.58;;;19.60;99.90;;;18.90;100.00;100289.75;3533083;39;101262;-81
2021/07/31 05:00:13;;;;;;;3.10;1.88;;;19.60;99.90;;;18.99;100.00;100245.91;3523515;39;103553;-82
2021/07/31 05:02:40;;;;;;;2.50;1.77;;;19.70;99.90;;;18.99;100.00;100240.47;3531812;39;100274;-82
2021/07/31 05:05:07;;;;;;;2.33;1.80;;;19.80;99.90;;;18.98;100.00;100216.28;3533537;39;99850;-82
2021/07/31 05:07:36;;;;;;;2.50;1.67;;;19.90;99.90;;;19.16;100.00;100199.34;3538750;39;100569;-83
2021/07/31 05:10:03;;;;;;;4.40;2.35;;;20.00;99.90;;;19.31;100.00;100170.00;3536380;39;101840;-82
2021/07/31 05:12:30;;;;;;;2.30;1.92;;;20.00;99.90;;;19.51;100.00;100145.53;3540819;39;100574;-81
2021/07/31 05:14:57;;;;;;;1.88;1.52;;;20.20;99.90;;;19.63;100.00;100141.03;3531822;39;99978;-81
2021/07/31 05:17:24;;;;;;;4.55;2.28;;;20.30;99.90;;;19.60;100.00;100123.31;3540481;39;101858;-84
2021/07/31 05:19:51;;;;;;;4.28;2.55;;;20.40;99.90;;;19.64;100.00;100094.69;3539809;39;100867;-81
2021/07/31 05:22:19;;;;;;;3.58;2.05;;;20.50;99.90;;;19.71;100.00;100103.59;3532204;39;100665;-82
2021/07/31 05:24:53;;;;;;;3.85;2.05;;;20.60;99.90;;;19.93;100.00;100076.03;3529036;39;100057;-82
2021/07/31 05:27:20;;;;;;;2.00;1.70;;;20.80;99.80;;;20.32;100.00;100072.88;3528452;39;100894;-83
2021/07/31 05:29:47;;;;;;;2.47;2.13;;;20.90;99.60;;;20.55;100.00;100014.31;3521016;39;102713;-81
2021/07/31 05:32:14;;;;;;;4.70;2.10;;;21.00;99.30;;;20.55;100.00;100017.03;3527969;39;100190;-80
2021/07/31 05:34:41;;;;;;;3.33;2.35;;;21.20;99.20;;;20.07;100.00;100015.09;3526119;39;100097;-82
2021/07/31 05:37:08;;;;;;;6.18;2.03;;;21.50;98.90;;;20.64;100.00;100013.78;3538983;39;101477;-83
2021/07/31 05:39:35;;;;;;;3.30;2.20;;;21.20;98.50;;;20.70;100.00;99988.38;3556455;39;101522;-82
2021/07/31 05:42:05;;;;;;;3.40;1.88;;;21.60;98.20;;;20.49;100.00;99978.03;3532806;39;101662;-81
2021/07/31 05:44:33;;;;;;;2.97;2.17;;;21.80;97.60;;;20.77;100.00;99971.97;3538844;39;100058;-81
2021/07/31 05:47:00;;;;;;;2.65;1.73;;;21.90;97.20;;;20.57;100.00;99974.13;3538937;39;101516;-86
2021/07/31 05:49:30;;;;;;;2.05;1.63;;;22.00;96.80;;;21.04;100.00;99954.16;3527804;39;101450;-81
2021/07/31 05:51:57;;;;;;;3.40;1.95;;;22.30;96.70;;;20.65;100.00;99914.81;3542927;39;100374;-83
2021/07/31 05:54:24;;;;;;;2.97;1.52;;;23.10;96.00;;;20.71;100.00;99911.19;3543340;39;100273;-85
2021/07/31 05:56:52;;;;;;;2.58;1.55;;;22.30;95.00;;;20.76;100.00;99897.75;3542395;39;101390;-82
2021/07/31 05:59:20;;;;;;;2.80;2.03;;;22.40;94.40;;;20.66;100.00;99864.00;3536131;39;102660;-85
2021/07/31 06:01:47;;;;;;;2.50;1.20;;;22.50;93.20;;;20.72;100.00;99861.19;3550306;39;100792;-82
2021/07/31 06:04:14;;;;;;;2.33;1.30;;;22.50;93.00;;;20.50;100.00;99849.22;3540813;39;100146;-83
2021/07/31 06:06:41;;;;;;;2.13;1.60;;;22.60;92.40;;;20.73;100.00;99846.53;3541967;39;101233;-83
2021/07/31 06:09:08;;;;;;;1.70;1.40;;;22.60;92.20;;;20.88;100.00;99843.38;3532641;39;102831;-85
2021/07/31 06:11:35;;;;;;;3.08;1.73;;;22.70;92.00;;;21.03;100.00;99826.56;3556318;39;100977;-82
2021/07/31 06:14:02;;;;;;;2.78;1.55;;;22.70;91.60;;;21.31;100.00;99815.78;3539962;39;100068;-84
2021/07/31 06:16:30;;;;;;;3.10;1.92;;;22.80;91.40;;;20.82;100.00;99780.94;3544378;39;100350;-84
2021/07/31 06:18:59;;;;;;;3.30;1.60;;;23.00;90.20;;;21.21;100.00;99788.38;3546974;39;100850;-82
2021/07/31 06:21:26;;;;;;;1.33;1.10;;;23.00;90.00;;;21.23;100.00;99771.81;3536676;39;100823;-81
2021/07/31 06:23:53;;;;;;;1.90;1.50;;;23.10;89.10;;;21.31;100.00;99768.69;3541078;39;100289;-84
2021/07/31 06:26:20;;;;;;;2.10;1.20;;;23.10;88.50;;;21.59;100.00;99740.69;3531570;39;102958;-80
2021/07/31 06:28:47;;;;;;;1.30;1.13;;;24.10;88.50;;;21.22;100.00;99722.00;3547768;39;101258;-83
2021/07/31 06:31:14;;;;;;;1.38;1.10;;;23.60;85.20;;;21.05;100.00;99731.94;3549084;39;101234;-81
2021/07/31 06:33:42;;;;;;;4.80;1.52;;;23.40;82.50;;;21.10;100.00;99726.63;3555056;39;100228;-85
2021/07/31 06:36:09;;;;;;;2.08;1.05;;;24.10;82.80;;;20.97;100.00;99705.94;3555692;39;100725;-82
2021/07/31 06:38:36;;;;;;;2.55;1.33;;;23.40;80.90;;;21.17;100.00;99698.19;3535621;39;103454;-85
2021/07/31 06:41:04;;;;;;;3.10;1.55;;;23.40;80.10;;;21.24;100.00;99708.16;3535036;39;102255;-86
2021/07/31 06:43:31;;;;;;;1.70;0.98;;;23.40;79.90;;;21.42;100.00;99680.75;3547478;39;100612;-82
2021/07/31 06:45:58;;;;;;;0.98;0.88;;;23.50;79.00;;;21.10;100.00;99659.44;3557771;39;101193;-85
2021/07/31 06:48:26;;;;;;;1.98;1.10;;;23.60;77.40;;;21.11;100.00;99657.56;3552320;39;100200;-81
2021/07/31 06:50:54;;;;;;;3.33;1.13;;;24.40;76.50;;;21.42;100.00;99664.41;3546343;39;100487;-83
2021/07/31 06:53:23;;;;;;;1.95;0.95;;;23.60;76.10;;;21.22;100.00;99653.16;3538400;39;100071;-82
2021/07/31 06:55:50;;;;;;;1.98;1.00;;;23.70;75.80;;;21.03;100.00;99639.69;3533349;39;102863;-82
2021/07/31 06:58:17;;;;;;;3.47;1.20;;;23.70;74.20;;;21.04;100.00;99621.50;3531104;39;103008;-83
2021/07/31 07:00:44;;;;;;;1.30;1.05;;;23.70;72.90;;;21.11;100.00;99622.19;3542249;39;100833;-81
2021/07/31 07:03:11;;;;;;;6.15;0.95;;;23.70;72.50;;;21.16;100.00;99614.94;3535574;39;100251;-81
2021/07/31 07:05:38;;;;;;;1.63;1.02;;;23.70;72.20;;;21.27;100.00;99609.72;3537172;39;101066;-81
2021/07/31 07:08:07;;;;;;;1.05;0.90;;;23.70;71.60;;;21.44;100.00;99610.56;3541700;39;101265;-83
2021/07/31 07:10:34;;;;;;;1.10;0.98;;;23.70;71.70;;;21.49;100.00;99589.72;3543747;39;100288;-84
2021/07/31 07:13:01;;;;;;;1.10;0.60;;;24.10;70.90;;;21.78;100.00;99586.91;3533860;39;100150;-82
2021/07/31 07:15:28;;;;;;;1.25;1.08;;;23.90;70.70;;;21.86;100.00;99583.78;3529763;39;100882;-84
2021/07/31 07:17:56;;;;;;;1.13;0.82;;;24.00;70.30;;;21.42;100.00;99574.59;3529729;39;103073;-85
2021/07/31 07:20:23;;;;;;;5.38;0.70;;;24.30;68.80;;;21.27;100.00;99571.63;3546001;39;100755;-85
2021/07/31 07:22:51;;;;;;;1.30;0.93;;;24.90;67.40;;;21.87;100.00;99569.09;3539409;39;100431;-83
2021/07/31 07:25:20;;;;;;;2.03;1.05;;;24.10;67.80;;;21.85;100.00;99533.94;3600996;22;99754;-82
2021/07/31 07:27:47;;;;;;;0.95;0.93;;;24.20;66.30;;;21.77;100.00;99533.53;3566047;39;100735;-85
2021/07/31 07:30:14;;;;;;;1.17;0.88;;;24.30;64.70;;;21.77;100.00;99533.53;3564466;39;100779;-83
2021/07/31 07:32:41;;;;;;;1.17;0.90;;;24.40;63.80;;;22.09;100.00;99504.63;3564691;39;100257;-84
2021/07/31 07:35:09;;;;;;;1.95;1.15;;;24.50;63.90;;;22.44;100.00;99514.31;3564779;39;101311;-85
2021/07/31 07:37:36;;;;;;;3.22;1.00;;;24.70;63.40;;;21.74;100.00;99515.81;3558410;39;101064;-82
2021/07/31 07:40:04;;;;;;;1.13;0.73;;;24.90;61.80;;;21.57;100.00;99520.44;3569987;39;102375;-83
2021/07/31 07:42:32;;;;;;;0.63;0.63;;;25.00;59.70;;;22.04;100.00;99523.59;3563765;39;100391;-83
2021/07/31 07:44:59;;;;;;;2.58;0.93;;;25.10;58.90;;;22.14;100.00;99509.28;3565412;39;100837;-86
2021/07/31 07:47:26;;;;;;;0.40;0.40;;;25.10;57.20;;;22.32;100.00;99509.00;3561790;39;100830;-83
2021/07/31 07:49:53;;;;;;;0.95;0.80;;;25.40;56.70;;;21.94;100.00;99509.81;3565897;39;100335;-81
2021/07/31 07:52:20;;;;;;;0.57;0.55;;;26.10;56.50;;;21.90;100.00;99499.66;3563964;39;101095;-83
2021/07/31 07:54:47;;;;;;;0.63;0.45;;;25.40;55.00;;;22.04;100.00;99493.66;3564092;39;100914;-82
2021/07/31 07:57:14;;;;;;;0.73;0.70;;;25.30;54.80;;;22.04;100.00;99509.16;3565748;39;100987;-85
2021/07/31 07:59:43;;;;;;;1.65;0.68;;;25.60;53.50;;;22.23;100.00;99499.63;3567755;39;101284;-85
2021/07/31 08:02:10;;;;;;;0.63;0.43;;;25.30;53.40;;;22.45;100.00;99496.91;3563187;39;100176;-84
2021/07/31 08:04:37;;;;;;;1.45;0.40;;;25.30;53.00;;;22.38;100.00;99498.97;3555824;39;103150;-86
2021/07/31 08:07:05;;;;;;;0.77;0.52;;;25.30;51.60;;;22.61;100.00;99497.91;3567465;39;101084;-85
2021/07/31 08:09:32;;;;;;;0.55;0.32;;;25.40;51.40;;;22.48;100.00;99488.22;3566887;39;99978;-81
2021/07/31 08:11:59;;;;;;;0.22;0.22;;;25.40;50.70;;;22.72;100.00;99494.19;3559192;39;100076;-85
2021/07/31 08:14:26;;;;;;;0.65;0.30;;;25.90;51.40;;;23.01;100.00;99497.50;3560558;39;100813;-83
2021/07/31 08:16:54;;;;;;;1.10;0.43;;;25.40;51.30;;;23.13;100.00;99490.81;3565289;39;101093;-82
2021/07/31 08:19:21;;;;;;;0.50;0.40;;;25.60;51.10;;;22.95;100.00;99487.66;3551262;39;102223;-82
2021/07/31 08:21:48;;;;;;;0.65;0.43;;;25.60;49.70;;;22.61;100.00;99498.72;3556768;39;100383;-83
2021/07/31 08:24:16;;;;;;;0.85;0.73;;;26.50;49.10;;;22.55;100.00;99486.94;3563699;39;100956;-84
2021/07/31 08:26:44;;;;;;;1.95;0.60;;;25.70;48.60;;;22.57;100.00;99481.22;3553113;39;100898;-83
2021/07/31 08:29:11;;;;;;;2.63;0.50;;;25.80;49.20;;;22.53;100.00;99477.34;3546825;39;102578;-82
2021/07/31 08:31:41;;;;;;;0.40;0.30;;;25.40;49.10;;;23.18;100.00;99482.69;3551125;39;100028;-83
2021/07/31 08:34:10;;;;;;;1.00;0.57;;;25.50;49.90;;;22.97;100.00;99482.75;3551247;39;103517;-86
2021/07/31 08:36:38;;;;;;;3.03;0.50;;;25.70;49.60;;;23.14;100.00;99475.25;3546442;39;103287;-84
2021/07/31 08:39:07;;;;;;;3.50;0.63;;;25.60;49.60;;;23.68;100.00;99475.97;3551175;39;102433;-82
2021/07/31 08:41:34;;;;;;;0.35;0.35;;;26.10;50.20;;;23.30;100.00;99474.31;3551459;39;100318;-81
2021/07/31 08:44:03;;;;;;;1.75;0.40;;;26.30;49.50;;;23.51;100.00;99472.56;3545967;39;101922;-86
2021/07/31 08:46:31;;;;;;;0.68;0.60;;;26.00;48.60;;;23.46;100.00;99473.34;3552359;39;102964;-84
2021/07/31 08:48:58;;;;;;;0.50;0.40;;;26.10;48.40;;;23.36;100.00;99478.75;3555521;39;100697;-85
2021/07/31 08:51:30;;;;;;;1.02;0.70;;;26.20;47.50;;;23.25;100.00;99472.34;3559531;39;99803;-82
2021/07/31 08:54:02;;;;;;;0.73;0.40;;;26.60;47.20;;;23.40;100.00;99477.13;3563757;39;101951;-84
2021/07/31 08:56:29;;;;;;;0.85;0.60;;;26.10;46.90;;;23.35;100.00;99474.38;3550526;39;100954;-83
2021/07/31 08:58:59;;;;;;;0.82;0.82;;;26.30;46.60;;;23.50;100.00;99468.16;3561204;39;100733;-83
2021/07/31 09:01:26;;;;;;;0.57;0.40;;;26.40;45.90;;;23.48;100.00;99471.19;3557081;39;99825;-81
2021/07/31 09:03:55;;;;;;;0.55;0.35;;;26.40;46.00;;;23.50;100.00;99482.69;3550564;39;101032;-82
2021/07/31 09:06:32;;;;;;;0.43;0.40;;;26.50;45.90;;;23.41;100.00;99472.47;3553827;39;103229;-83
2021/07/31 09:09:00;;;;;;;0.40;0.30;;;26.40;45.70;;;23.38;100.00;99471.09;3551285;39;100838;-85
2021/07/31 09:11:28;;;;;;;0.82;0.52;;;26.60;45.90;;;23.57;100.00;99477.84;3550866;39;100099;-84
2021/07/31 09:14:13;;;;;;;0.70;0.45;;;27.00;46.80;;;23.53;100.00;99462.22;3552148;39;103042;-86
2021/07/31 09:16:42;;;;;;;0.88;0.55;;;26.40;45.30;;;23.67;100.00;99470.78;3559912;39;100992;-83
2021/07/31 09:19:12;;;;;;;3.22;0.93;;;26.50;45.50;;;23.77;100.00;99466.19;3552388;39;101165;-83
2021/07/31 09:21:42;;;;;;;0.47;0.30;;;26.80;45.70;;;23.53;100.00;99465.78;3558082;39;101002;-82
2021/07/31 09:24:17;;;;;;;0.73;0.60;;;26.50;45.10;;;23.38;100.00;99465.63;3548372;39;101488;-83
2021/07/31 09:26:48;;;;;;;1.45;0.60;;;26.90;45.30;;;23.60;100.00;99462.84;3562083;39;101379;-83
2021/07/31 09:29:20;;;;;;;0.98;0.65;;;26.40;45.40;;;23.48;100.00;99478.56;3566573;39;102390;-82
2021/07/31 09:31:57;;;;;;;0.22;0.20;;;26.50;45.50;;;23.53;100.00;99464.94;3572974;39;99895;-82
2021/07/31 09:34:30;;;;;;;1.95;0.70;;;26.40;45.60;;;23.35;100.00;99468.91;3566509;39;101038;-84
2021/07/31 09:37:16;;;;;;;1.15;0.55;;;26.30;45.20;;;23.91;100.00;99477.47;3566487;39;100722;-82
2021/07/31 09:39:53;;;;;;;4.45;0.70;;;26.30;45.70;;;23.66;100.00;99472.69;3569838;39;102412;-81
2021/07/31 09:42:27;;;;;;;1.85;0.80;;;26.40;45.40;;;23.46;100.00;99470.63;3565316;39;100416;-82
2021/07/31 09:44:54;;;;;;;3.60;0.52;;;26.40;45.30;;;23.46;100.00;99476.09;3562970;39;101210;-84
2021/07/31 09:47:21;;;;;;;0.85;0.40;;;26.40;45.80;;;23.77;100.00;99468.13;3568849;39;100475;-83
2021/07/31 09:49:50;;;;;;;2.53;0.55;;;26.40;46.00;;;23.63;100.00;99479.50;3566518;39;101387;-83
2021/07/31 09:52:20;;;;;;;1.33;0.70;;;26.40;45.20;;;23.75;100.00;99470.28;3565104;39;100180;-83
2021/07/31 09:54:48;;;;;;;1.10;0.73;;;26.50;45.40;;;23.93;100.00;99483.50;3562280;39;100332;-85
2021/07/31 09:57:16;;;;;;;0.63;0.30;;;26.70;45.80;;;23.73;100.00;99462.38;3571114;39;100483;-83
2021/07/31 09:59:48;;;;;;;0.90;0.55;;;27.00;45.80;;;23.57;100.00;99460.63;3564874;39;100170;-82
2021/07/31 10:02:18;;;;;;;0.95;0.73;;;27.20;45.90;;;23.86;100.00;99469.28;3562967;39;100632;-84
2021/07/31 10:04:46;;;;;;;1.17;0.43;;;26.50;46.10;;;23.90;100.00;99470.38;3555378;39;101157;-82
2021/07/31 10:07:14;;;;;;;2.10;0.35;;;26.60;46.30;;;23.90;100.00;99470.38;3562516;39;100574;-82
2021/07/31 10:09:49;;;;;;;1.45;0.40;;;26.50;46.10;;;23.94;100.00;99453.19;3590626;22;102519;-86
2021/07/31 10:12:18;;;;;;;0.47;0.38;;;26.60;46.40;;;23.82;100.00;99465.41;3558659;39;99977;-82